Time;durP1;ratioP1;P1;durP2;ratioP2;P2;SDS_P1;SDS_P2;PMS_P1;PMS_P2;Temp;Humidity;BMP_temperature;BMP_pressure;BME280_temperature;BME280_humidity;BME280_pressure;Samples;Min_cycle;Max_cycle;Signal;HPM_P1;HPM_P2
2022/03/27 00:00:13;;;;;;;3.33;2.10;;;8.20;87.60;;;;;;5126992;27;20297;-59
2022/03/27 00:02:57;;;;;;;3.67;1.87;;;8.20;87.50;;;;;;5125421;27;20191;-56
2022/03/27 00:05:42;;;;;;;3.47;1.97;;;8.20;87.40;;;;;;5126016;27;20218;-56
2022/03/27 00:08:27;;;;;;;2.93;2.10;;;8.10;86.70;;;;;;5126392;27;20238;-59
2022/03/27 00:11:24;;;;;;;2.47;2.30;;;8.10;86.40;;;;;;5124881;27;20213;-59
2022/03/27 00:14:08;;;;;;;4.10;2.23;;;8.10;86.60;;;;;;5125424;27;20187;-56
2022/03/27 00:16:53;;;;;;;2.07;1.97;;;8.00;86.80;;;;;;5126201;27;20317;-53
2022/03/27 00:19:37;;;;;;;3.83;2.40;;;7.90;86.90;;;;;;5124733;27;20227;-55
2022/03/27 00:22:22;;;;;;;5.93;2.63;;;7.80;87.40;;;;;;5126781;27;20195;-50
2022/03/27 00:25:07;;;;;;;4.90;2.60;;;7.70;87.50;;;;;;5125871;27;20285;-51
2022/03/27 00:27:51;;;;;;;2.60;2.33;;;7.70;87.90;;;;;;5124617;27;20303;-53
2022/03/27 00:30:38;;;;;;;4.77;2.47;;;7.70;87.90;;;;;;5126526;27;20188;-50
2022/03/27 00:33:24;;;;;;;5.17;1.93;;;7.60;88.40;;;;;;5125524;27;20191;-58
2022/03/27 00:36:13;;;;;;;7.40;2.90;;;7.70;89.50;;;;;;5124676;27;20218;-55
2022/03/27 00:38:58;;;;;;;3.23;2.03;;;7.70;90.10;;;;;;5126169;27;20245;-51
2022/03/27 00:41:44;;;;;;;6.33;2.20;;;7.60;90.10;;;;;;5124215;27;20273;-51
2022/03/27 00:44:28;;;;;;;3.23;2.40;;;7.50;90.20;;;;;;5125038;27;20188;-49
2022/03/27 00:47:12;;;;;;;1.90;1.80;;;7.50;90.20;;;;;;5125378;27;20315;-50
2022/03/27 00:49:57;;;;;;;4.87;2.07;;;7.40;90.40;;;;;;5124183;27;20191;-55
2022/03/27 00:52:43;;;;;;;2.93;1.63;;;7.40;90.60;;;;;;5126220;27;20214;-60
2022/03/27 00:55:28;;;;;;;4.27;2.30;;;7.40;90.40;;;;;;5124736;27;20711;-47
2022/03/27 00:58:16;;;;;;;5.17;1.73;;;7.40;90.60;;;;;;5123929;27;20277;-55
2022/03/27 01:01:09;;;;;;;2.37;2.17;;;7.40;91.00;;;;;;5125888;27;20218;-56
2022/03/27 01:03:56;;;;;;;5.53;2.43;;;7.40;91.30;;;;;;5124289;27;20320;-60
2022/03/27 01:06:43;;;;;;;3.27;2.10;;;7.30;91.70;;;;;;5124081;27;20253;-47
2022/03/27 01:09:37;;;;;;;2.43;1.83;;;7.30;91.70;;;;;;5125987;27;20223;-60
2022/03/27 01:12:27;;;;;;;2.83;2.10;;;7.30;91.80;;;;;;5124430;27;20252;-54
2022/03/27 01:15:54;;;;;;;4.80;2.43;;;7.20;91.90;;;;;;5124305;27;20249;-59
2022/03/27 01:18:39;;;;;;;4.60;2.17;;;7.20;91.90;;;;;;5125430;27;20246;-55
2022/03/27 01:21:23;;;;;;;4.57;2.20;;;7.20;92.20;;;;;;5125185;27;20203;-57
2022/03/27 01:24:09;;;;;;;5.23;3.27;;;7.20;92.30;;;;;;5123425;27;20311;-49
2022/03/27 01:26:53;;;;;;;3.83;2.97;;;7.10;92.70;;;;;;5125248;27;20227;-58
2022/03/27 01:29:38;;;;;;;3.37;2.43;;;7.00;93.20;;;;;;5123781;27;20198;-57
2022/03/27 01:32:23;;;;;;;7.80;1.90;;;7.00;93.30;;;;;;5124268;27;20191;-59
2022/03/27 01:35:10;;;;;;;3.30;2.50;;;6.90;93.50;;;;;;5125031;27;20203;-56
2022/03/27 01:37:55;;;;;;;4.73;2.17;;;7.00;93.50;;;;;;5123441;27;20219;-59
2022/03/27 01:40:39;;;;;;;2.27;2.00;;;6.90;93.60;;;;;;5123995;27;20253;-52
2022/03/27 01:43:24;;;;;;;2.40;1.70;;;6.80;93.70;;;;;;5124404;27;20248;-60
2022/03/27 01:46:09;;;;;;;3.60;3.00;;;6.80;93.70;;;;;;5123627;27;20630;-60
2022/03/27 01:48:53;;;;;;;6.43;2.67;;;6.70;93.80;;;;;;5124589;27;20199;-57
2022/03/27 01:51:39;;;;;;;2.73;2.00;;;6.60;93.80;;;;;;5124862;27;20184;-60
2022/03/27 01:54:23;;;;;;;2.77;2.20;;;6.50;94.00;;;;;;5123216;27;20265;-55
2022/03/27 01:57:08;;;;;;;2.57;2.17;;;6.50;94.10;;;;;;5125115;27;20254;-53
2022/03/27 01:59:53;;;;;;;2.77;2.57;;;6.40;94.10;;;;;;5123645;27;20222;-54
2022/03/27 02:02:37;;;;;;;3.20;2.30;;;6.40;94.20;;;;;;5122883;27;20233;-57
2022/03/27 02:05:21;;;;;;;4.53;1.93;;;6.30;94.30;;;;;;5124013;27;20207;-53
2022/03/27 02:08:06;;;;;;;2.93;2.73;;;6.30;94.30;;;;;;5123599;28;20199;-52
2022/03/27 02:10:52;;;;;;;2.60;2.33;;;6.30;94.50;;;;;;5124221;28;20196;-53
2022/03/27 02:13:37;;;;;;;3.13;2.40;;;6.20;94.30;;;;;;5124660;28;20226;-59
2022/03/27 02:16:21;;;;;;;2.03;1.83;;;6.20;94.30;;;;;;5122973;28;20279;-54
2022/03/27 02:19:08;;;;;;;4.27;1.97;;;6.10;94.40;;;;;;5124284;28;20638;-54
2022/03/27 02:21:54;;;;;;;5.40;2.17;;;6.10;94.60;;;;;;5123970;28;20196;-56
2022/03/27 02:24:39;;;;;;;4.80;2.63;;;6.00;94.60;;;;;;5122559;28;20318;-49
2022/03/27 02:31:10;;;;;;;4.37;2.63;;;6.10;95.00;;;;;;5125147;28;20209;-52
2022/03/27 02:33:56;;;;;;;6.10;2.90;;;6.20;95.00;;;;;;5123476;28;20275;-56
2022/03/27 02:36:41;;;;;;;4.20;2.20;;;6.10;95.00;;;;;;5123529;28;20196;-53
2022/03/27 02:39:27;;;;;;;3.10;2.50;;;6.10;94.90;;;;;;5141109;27;20304;-50
2022/03/27 02:42:12;;;;;;;4.13;2.40;;;6.10;95.80;;;;;;5126329;27;20195;-52
2022/03/27 02:44:56;;;;;;;3.67;2.40;;;6.10;95.50;;;;;;5129182;27;20183;-53
2022/03/27 02:47:43;;;;;;;3.50;2.73;;;6.10;95.90;;;;;;5128508;27;20203;-59
2022/03/27 02:50:30;;;;;;;2.40;2.30;;;6.10;96.20;;;;;;5127638;27;20237;-56
2022/03/27 02:53:14;;;;;;;3.37;2.33;;;6.00;96.60;;;;;;5129053;27;20195;-53
2022/03/27 02:55:59;;;;;;;3.37;2.67;;;6.10;96.40;;;;;;5128168;27;20192;-58
2022/03/27 02:58:44;;;;;;;5.07;2.83;;;6.00;96.40;;;;;;5127323;27;20234;-52
2022/03/27 03:01:28;;;;;;;7.00;3.40;;;6.00;96.50;;;;;;5128640;27;20199;-55
2022/03/27 03:04:14;;;;;;;3.93;2.57;;;5.90;96.70;;;;;;5127431;27;20229;-58
2022/03/27 03:06:59;;;;;;;3.77;2.87;;;5.90;96.60;;;;;;5128189;27;20261;-55
2022/03/27 03:09:44;;;;;;;6.47;3.20;;;5.70;96.90;;;;;;5128547;27;20200;-61
2022/03/27 03:12:28;;;;;;;12.87;3.20;;;5.70;97.10;;;;;;5126500;27;20233;-56
2022/03/27 03:15:13;;;;;;;6.97;3.37;;;5.60;97.30;;;;;;5127296;27;20191;-58
2022/03/27 03:17:57;;;;;;;3.50;2.33;;;5.70;97.40;;;;;;5126898;27;20269;-58
2022/03/27 03:20:42;;;;;;;6.10;2.77;;;5.70;97.40;;;;;;5125728;27;20193;-55
2022/03/27 03:23:27;;;;;;;4.00;2.77;;;5.60;97.50;;;;;;5127698;27;20187;-53
2022/03/27 03:26:11;;;;;;;5.90;2.70;;;5.60;97.50;;;;;;5126525;27;20191;-53
2022/03/27 03:28:55;;;;;;;3.90;2.80;;;5.50;97.80;;;;;;5126615;27;20259;-51
2022/03/27 03:31:39;;;;;;;3.43;2.20;;;5.40;98.10;;;;;;5127083;27;20200;-50
2022/03/27 03:34:25;;;;;;;2.73;2.03;;;5.40;98.50;;;;;;5125988;27;20227;-47
2022/03/27 03:37:09;;;;;;;6.80;2.47;;;5.30;98.70;;;;;;5126450;27;20183;-54
2022/03/27 03:39:53;;;;;;;2.97;2.27;;;5.40;98.60;;;;;;5126705;27;20258;-53
2022/03/27 03:42:38;;;;;;;2.43;2.23;;;5.30;98.90;;;;;;5125179;27;21156;-51
2022/03/27 03:45:22;;;;;;;5.40;2.70;;;5.30;99.00;;;;;;5127379;27;20211;-53
2022/03/27 03:48:07;;;;;;;5.70;3.60;;;5.20;99.40;;;;;;5126895;27;20229;-57
2022/03/27 03:50:51;;;;;;;6.10;2.90;;;5.10;99.50;;;;;;5124478;27;20207;-55
2022/03/27 03:53:36;;;;;;;8.13;3.43;;;5.10;99.90;;;;;;5127421;27;20241;-59
2022/03/27 03:56:20;;;;;;;6.47;3.40;;;5.20;99.80;;;;;;5125747;27;20249;-58
2022/03/27 03:59:05;;;;;;;6.40;2.43;;;5.10;99.90;;;;;;5125652;27;20226;-52
2022/03/27 04:01:49;;;;;;;5.13;2.47;;;5.00;99.90;;;;;;5126933;27;20268;-51
2022/03/27 04:04:34;;;;;;;3.67;2.67;;;4.90;99.90;;;;;;5125237;27;20191;-51
2022/03/27 04:07:18;;;;;;;5.10;3.43;;;4.70;99.90;;;;;;5126206;27;20199;-59
2022/03/27 04:10:03;;;;;;;5.10;2.73;;;4.60;99.90;;;;;;5125826;27;20187;-53
2022/03/27 04:12:48;;;;;;;6.57;3.20;;;4.60;99.90;;;;;;5124546;27;20192;-52
2022/03/27 04:15:33;;;;;;;5.80;2.63;;;4.60;99.90;;;;;;5126910;27;20198;-49
2022/03/27 04:18:17;;;;;;;10.07;4.53;;;4.70;99.90;;;;;;5125864;27;20226;-51
2022/03/27 04:21:01;;;;;;;4.03;2.90;;;4.80;99.90;;;;;;5125188;27;20284;-52
2022/03/27 04:23:46;;;;;;;4.27;3.17;;;4.80;99.90;;;;;;5126762;27;20190;-53
2022/03/27 04:26:30;;;;;;;6.80;3.10;;;4.70;99.90;;;;;;5125299;27;20244;-53
2022/03/27 04:29:15;;;;;;;3.63;2.33;;;4.70;99.90;;;;;;5126002;27;20266;-56
2022/03/27 04:32:01;;;;;;;18.00;3.97;;;4.80;99.90;;;;;;5126916;27;20227;-49
2022/03/27 04:34:50;;;;;;;5.43;3.43;;;4.70;99.90;;;;;;5125004;27;20260;-53
2022/03/27 04:37:42;;;;;;;4.00;3.20;;;4.80;99.90;;;;;;5126253;27;20188;-48
2022/03/27 04:40:27;;;;;;;5.57;3.80;;;4.70;99.90;;;;;;5125796;27;20224;-50
2022/03/27 04:43:12;;;;;;;12.87;5.17;;;4.50;99.90;;;;;;5123557;27;20196;-54
2022/03/27 04:45:56;;;;;;;6.30;3.53;;;4.40;99.90;;;;;;5126049;27;20274;-53
2022/03/27 04:48:42;;;;;;;7.73;4.07;;;4.40;99.90;;;;;;5125295;27;20272;-56
2022/03/27 04:51:27;;;;;;;5.13;2.67;;;4.30;99.90;;;;;;5124416;27;20212;-60
2022/03/27 04:54:11;;;;;;;8.03;3.30;;;4.30;99.90;;;;;;5126332;27;20206;-57
2022/03/27 04:56:55;;;;;;;2.80;2.47;;;4.40;99.90;;;;;;5124803;27;20296;-54
2022/03/27 04:59:39;;;;;;;3.87;2.60;;;4.20;99.90;;;;;;5124327;27;20224;-54
2022/03/27 05:02:24;;;;;;;6.70;3.20;;;4.20;99.90;;;;;;5125453;27;20203;-52
2022/03/27 05:05:10;;;;;;;8.37;3.80;;;4.30;99.90;;;;;;5124710;27;20202;-61
2022/03/27 05:07:55;;;;;;;7.50;3.13;;;4.40;99.90;;;;;;5124510;27;20203;-59
2022/03/27 05:10:39;;;;;;;6.10;3.17;;;4.40;99.90;;;;;;5125255;27;20277;-54
2022/03/27 05:13:23;;;;;;;2.93;2.60;;;4.40;99.90;;;;;;5123519;27;20194;-58
2022/03/27 05:16:08;;;;;;;4.17;2.50;;;4.40;99.90;;;;;;5125357;27;20198;-59
2022/03/27 05:18:52;;;;;;;6.77;3.30;;;4.30;99.90;;;;;;5124642;27;20258;-56
2022/03/27 05:21:36;;;;;;;4.93;2.57;;;4.40;99.90;;;;;;5124142;27;20215;-53
2022/03/27 05:24:20;;;;;;;4.03;2.87;;;4.40;99.90;;;;;;5125420;27;20211;-51
2022/03/27 05:27:04;;;;;;;41.03;18.30;;;4.40;99.90;;;;;;5124035;27;20230;-54
2022/03/27 05:29:49;;;;;;;4.40;3.30;;;4.50;99.90;;;;;;5123920;27;20187;-51
2022/03/27 05:32:33;;;;;;;4.07;3.20;;;4.60;99.90;;;;;;5125397;27;20199;-53
2022/03/27 05:35:19;;;;;;;4.87;3.27;;;4.80;99.90;;;;;;5124288;27;20230;-59
2022/03/27 05:38:03;;;;;;;4.53;2.53;;;4.80;99.90;;;;;;5124709;27;20234;-52
2022/03/27 05:40:47;;;;;;;6.73;3.37;;;4.70;99.90;;;;;;5124432;27;20230;-58
2022/03/27 05:43:31;;;;;;;6.60;3.13;;;4.70;99.90;;;;;;5123406;27;20242;-57
2022/03/27 05:46:16;;;;;;;4.17;3.17;;;4.90;99.90;;;;;;5124521;27;20200;-61
2022/03/27 05:49:00;;;;;;;3.43;2.53;;;5.20;99.90;;;;;;5124198;27;20207;-60
2022/03/27 05:51:44;;;;;;;5.50;3.00;;;5.30;99.90;;;;;;5123400;27;20183;-49
2022/03/27 05:54:29;;;;;;;3.90;2.83;;;5.30;99.90;;;;;;5124661;27;20187;-51
2022/03/27 05:57:14;;;;;;;8.60;3.23;;;5.30;99.90;;;;;;5123905;27;20215;-52
2022/03/27 05:59:58;;;;;;;5.43;3.03;;;5.40;99.90;;;;;;5123137;27;20260;-58
2022/03/27 06:02:43;;;;;;;4.20;3.07;;;5.50;99.90;;;;;;5124851;27;20212;-53
2022/03/27 06:05:29;;;;;;;3.80;2.60;;;5.60;99.90;;;;;;5123347;27;20255;-52
2022/03/27 06:08:13;;;;;;;3.40;2.80;;;5.60;99.90;;;;;;5123930;27;20281;-50
2022/03/27 06:10:57;;;;;;;3.40;2.50;;;5.60;99.90;;;;;;5124290;27;20199;-52
2022/03/27 06:13:41;;;;;;;4.73;3.33;;;5.70;99.90;;;;;;5121764;27;20313;-52
2022/03/27 06:16:25;;;;;;;7.07;3.00;;;5.60;99.90;;;;;;5124362;28;20203;-52
2022/03/27 06:19:11;;;;;;;4.27;2.87;;;5.70;99.90;;;;;;5123978;28;20273;-54
2022/03/27 06:21:59;;;;;;;6.50;3.37;;;5.50;99.90;;;;;;5122914;28;20249;-60
2022/03/27 06:24:44;;;;;;;6.07;3.23;;;5.70;99.90;;;;;;5124512;28;20320;-59
2022/03/27 06:27:28;;;;;;;4.47;2.67;;;5.80;99.90;;;;;;5123456;28;20203;-57
2022/03/27 06:30:15;;;;;;;2.77;2.47;;;5.70;99.90;;;;;;5123460;28;20195;-57
2022/03/27 06:33:00;;;;;;;5.43;2.90;;;5.70;99.90;;;;;;5124226;28;20192;-56
2022/03/27 06:35:45;;;;;;;8.27;3.10;;;5.90;99.90;;;;;;5123137;28;20241;-58
2022/03/27 06:38:31;;;;;;;4.17;2.67;;;6.00;99.90;;;;;;5123616;28;20218;-60
2022/03/27 06:41:16;;;;;;;5.90;2.53;;;6.00;99.90;;;;;;5123992;28;20227;-59
2022/03/27 06:44:00;;;;;;;28.40;11.90;;;6.10;99.90;;;;;;5121881;28;20341;-55
2022/03/27 06:46:44;;;;;;;4.60;3.30;;;6.10;99.90;;;;;;5124599;28;20223;-51
2022/03/27 06:49:30;;;;;;;4.97;2.33;;;6.40;99.90;;;;;;5123917;28;20191;-54
2022/03/27 06:52:15;;;;;;;3.53;2.13;;;6.50;99.90;;;;;;5122855;28;20203;-52
2022/03/27 06:55:03;;;;;;;3.53;2.53;;;6.60;99.90;;;;;;5124526;28;20223;-53
2022/03/27 06:57:48;;;;;;;6.20;2.93;;;6.40;99.90;;;;;;5123967;28;20273;-52
2022/03/27 07:03:37;;;;;;;3.67;2.70;;;6.50;99.90;;;;;;5125870;28;20218;-56
2022/03/27 07:06:23;;;;;;;21.20;7.93;;;6.70;99.90;;;;;;5123199;28;20226;-58
2022/03/27 07:09:08;;;;;;;5.53;3.23;;;6.80;99.90;;;;;;5122190;28;20227;-54
2022/03/27 07:11:52;;;;;;;8.07;2.77;;;6.90;99.90;;;;;;5123439;28;20200;-58
2022/03/27 07:14:36;;;;;;;3.30;2.33;;;6.90;99.90;;;;;;5122979;28;20195;-56
2022/03/27 07:17:20;;;;;;;6.60;2.47;;;6.90;99.90;;;;;;5123082;28;20191;-52
2022/03/27 07:20:05;;;;;;;6.03;2.50;;;6.90;99.90;;;;;;5123263;28;20243;-49
2022/03/27 07:22:50;;;;;;;5.40;2.87;;;7.10;99.90;;;;;;5122688;28;20215;-54
2022/03/27 07:25:35;;;;;;;4.23;2.77;;;7.20;99.90;;;;;;5127035;27;20237;-52
2022/03/27 07:28:22;;;;;;;5.17;2.53;;;7.30;99.90;;;;;;5126799;27;20198;-49
2022/03/27 07:31:06;;;;;;;3.80;2.30;;;7.50;99.90;;;;;;5126036;27;20196;-53
2022/03/27 07:33:52;;;;;;;4.33;2.47;;;7.60;99.90;;;;;;5127381;27;20188;-56
2022/03/27 07:36:37;;;;;;;20.37;8.50;;;7.70;99.90;;;;;;5126216;27;20261;-54
2022/03/27 07:39:21;;;;;;;12.70;7.07;;;7.80;99.90;;;;;;5125996;27;20264;-53
2022/03/27 07:42:06;;;;;;;3.47;2.40;;;7.90;99.90;;;;;;5127138;27;20199;-50
2022/03/27 07:44:50;;;;;;;9.23;4.57;;;8.00;99.90;;;;;;5125711;27;20208;-52
2022/03/27 07:47:34;;;;;;;5.27;3.43;;;8.20;99.90;;;;;;5126411;27;20209;-58
2022/03/27 07:50:20;;;;;;;3.30;2.80;;;8.40;99.90;;;;;;5127284;27;20261;-58
2022/03/27 07:53:05;;;;;;;2.37;1.97;;;8.40;99.60;;;;;;5125930;27;20191;-56
2022/03/27 07:55:50;;;;;;;4.83;2.70;;;8.50;99.40;;;;;;5126856;27;20312;-53
2022/03/27 07:58:34;;;;;;;4.60;2.70;;;8.70;99.10;;;;;;5126238;27;20284;-61
2022/03/27 08:01:19;;;;;;;3.33;2.50;;;8.80;98.80;;;;;;5125392;27;20242;-56
2022/03/27 08:04:05;;;;;;;4.43;3.30;;;9.00;98.60;;;;;;5127309;27;20208;-59
2022/03/27 08:06:51;;;;;;;3.13;2.50;;;9.10;98.30;;;;;;5125604;27;20284;-61
2022/03/27 08:09:35;;;;;;;5.43;3.00;;;9.30;98.20;;;;;;5125054;27;20245;-55
2022/03/27 08:12:20;;;;;;;3.57;2.90;;;9.60;97.60;;;;;;5126601;27;20245;-51
2022/03/27 08:15:06;;;;;;;3.43;2.33;;;9.90;97.00;;;;;;5125011;27;20207;-56
2022/03/27 08:17:54;;;;;;;5.77;2.93;;;10.30;96.30;;;;;;5126297;27;20234;-56
2022/03/27 08:20:40;;;;;;;3.63;2.63;;;10.70;95.50;;;;;;5125952;27;20199;-56
2022/03/27 08:23:24;;;;;;;4.53;3.00;;;11.40;94.20;;;;;;5124858;27;20223;-60
2022/03/27 08:29:12;;;;;;;5.70;3.53;;;11.80;92.80;;;;;;5127122;27;20224;-48
2022/03/27 08:32:01;;;;;;;6.63;3.97;;;12.10;92.20;;;;;;5124041;27;20204;-48
2022/03/27 08:34:50;;;;;;;8.03;3.83;;;12.40;91.90;;;;;;5126726;27;20191;-46
2022/03/27 08:37:34;;;;;;;6.63;3.97;;;13.00;91.50;;;;;;5125544;27;20201;-51
2022/03/27 08:40:20;;;;;;;5.80;3.80;;;12.60;91.70;;;;;;5124474;27;20293;-52
2022/03/27 08:43:14;;;;;;;13.67;7.83;;;12.90;91.50;;;;;;5125828;27;20195;-48
2022/03/27 08:45:58;;;;;;;6.67;4.77;;;13.20;91.30;;;;;;5125789;27;20271;-50
2022/03/27 08:48:44;;;;;;;4.43;3.57;;;13.30;91.30;;;;;;5124153;27;20192;-49
2022/03/27 08:52:01;;;;;;;6.17;3.53;;;13.30;91.10;;;;;;5126318;27;20203;-51
2022/03/27 08:54:49;;;;;;;6.23;4.10;;;13.10;91.30;;;;;;5101298;27;20257;-54
2022/03/27 08:57:52;;;;;;;4.37;3.30;;;13.30;91.10;;;;;;5124040;27;20329;-48
2022/03/27 09:00:38;;;;;;;6.00;3.80;;;13.50;90.80;;;;;;5140546;27;20282;-50
2022/03/27 09:03:23;;;;;;;4.97;3.77;;;14.40;90.20;;;;;;5124933;27;20215;-52
2022/03/27 09:06:08;;;;;;;5.60;3.87;;;14.60;89.30;;;;;;5123560;27;20273;-57
2022/03/27 09:08:53;;;;;;;5.10;3.67;;;14.70;87.70;;;;;;5125567;27;20186;-56
2022/03/27 09:11:38;;;;;;;20.77;11.83;;;14.50;87.50;;;;;;5124199;27;20200;-53
2022/03/27 09:14:23;;;;;;;17.40;8.07;;;14.90;87.00;;;;;;5124373;27;20202;-60
2022/03/27 09:17:08;;;;;;;6.67;3.97;;;15.60;86.00;;;;;;5125318;27;20244;-57
2022/03/27 09:19:52;;;;;;;8.00;4.47;;;16.60;82.80;;;;;;5123837;27;20244;-59
2022/03/27 09:22:36;;;;;;;7.63;4.53;;;17.20;80.10;;;;;;5124162;27;20276;-60
2022/03/27 09:25:20;;;;;;;9.30;4.63;;;17.70;78.50;;;;;;5125131;27;20274;-53
2022/03/27 09:28:05;;;;;;;7.23;4.30;;;17.60;77.80;;;;;;5123354;27;20228;-61
2022/03/27 09:30:50;;;;;;;4.87;3.90;;;17.70;77.40;;;;;;5125297;27;20212;-58
2022/03/27 09:33:46;;;;;;;6.32;4.57;;;17.90;76.10;;;;;;5124870;27;20195;-55
2022/03/27 09:36:35;;;;;;;8.35;4.57;;;18.20;75.10;;;;;;5123393;27;20195;-53
2022/03/27 09:39:22;;;;;;;6.45;3.88;;;17.80;76.40;;;;;;5139685;27;20215;-61
2022/03/27 09:42:16;;;;;;;4.93;3.53;;;18.50;73.70;;;;;;5124624;27;20348;-60
2022/03/27 09:45:14;;;;;;;54.10;29.67;;;19.40;71.40;;;;;;5123619;27;20264;-52
2022/03/27 09:48:08;;;;;;;12.95;6.85;;;19.50;69.80;;;;;;5124521;27;20203;-61
2022/03/27 09:50:54;;;;;;;8.20;5.47;;;20.30;68.70;;;;;;5124707;27;20220;-61
2022/03/27 09:53:39;;;;;;;6.00;4.18;;;20.80;65.40;;;;;;5123764;27;20199;-47
2022/03/27 09:56:29;;;;;;;6.35;4.30;;;21.40;63.60;;;;;;5125402;27;20257;-56
2022/03/27 09:59:30;;;;;;;8.40;5.10;;;21.30;62.20;;;;;;5123809;27;20232;-60
2022/03/27 10:02:30;;;;;;;10.07;5.88;;;21.20;61.50;;;;;;5123216;27;20191;-55
2022/03/27 10:05:21;;;;;;;7.95;4.30;;;21.70;61.50;;;;;;5125066;27;20187;-53
2022/03/27 10:08:06;;;;;;;6.22;4.10;;;22.50;60.10;;;;;;5124192;27;20192;-57
2022/03/27 10:10:50;;;;;;;11.15;4.63;;;22.50;58.50;;;;;;5123423;27;20206;-52
2022/03/27 10:13:35;;;;;;;7.50;4.55;;;22.60;59.10;;;;;;5124819;28;20198;-62
2022/03/27 10:16:32;;;;;;;5.70;4.05;;;22.60;58.60;;;;;;5123195;28;20191;-51
2022/03/27 10:19:57;;;;;;;9.98;5.35;;;23.10;58.50;;;;;;5137284;27;20223;-58
2022/03/27 10:22:43;;;;;;;7.93;4.68;;;23.40;57.40;;;;;;5124450;28;20195;-58
2022/03/27 10:25:37;;;;;;;6.97;4.50;;;23.20;55.70;;;;;;5124179;28;20269;-56
2022/03/27 10:28:22;;;;;;;7.90;4.22;;;23.90;55.50;;;;;;5122722;28;20203;-54
2022/03/27 10:31:08;;;;;;;8.07;4.57;;;24.70;53.60;;;;;;5125028;28;20321;-60
2022/03/27 10:33:55;;;;;;;19.83;11.85;;;25.20;51.80;;;;;;5123932;28;20240;-61
2022/03/27 10:36:48;;;;;;;7.93;4.65;;;24.40;52.40;;;;;;5123247;28;20194;-58
2022/03/27 10:40:03;;;;;;;14.77;9.95;;;23.10;53.60;;;;;;5124596;28;20227;-55
2022/03/27 10:43:02;;;;;;;18.48;12.15;;;24.00;54.00;;;;;;5123882;28;20204;-59
2022/03/27 10:46:13;;;;;;;29.73;21.33;;;24.50;53.20;;;;;;5123060;28;20280;-53
2022/03/27 10:49:15;;;;;;;5.93;4.80;;;25.10;52.30;;;;;;5123742;28;20194;-57
2022/03/27 10:52:06;;;;;;;6.38;4.60;;;26.00;50.30;;;;;;5138883;27;20195;-57
2022/03/27 10:55:06;;;;;;;7.03;3.83;;;26.20;50.70;;;;;;5123568;28;20298;-57
2022/03/27 10:57:50;;;;;;;5.95;4.60;;;26.00;50.50;;;;;;5123621;28;20245;-52
2022/03/27 11:00:42;;;;;;;5.97;4.78;;;26.50;49.80;;;;;;5127570;27;20258;-59
2022/03/27 11:03:45;;;;;;;7.32;5.30;;;26.50;49.00;;;;;;5127452;27;20252;-58
2022/03/27 11:06:36;;;;;;;7.15;4.65;;;26.40;50.00;;;;;;5127410;27;20183;-49
2022/03/27 11:09:38;;;;;;;4.47;4.07;;;24.90;51.50;;;;;;5127715;27;20223;-60
2022/03/27 11:12:24;;;;;;;8.27;6.47;;;25.80;50.80;;;;;;5126753;27;20222;-55
2022/03/27 11:15:08;;;;;;;5.85;4.35;;;26.10;51.20;;;;;;5126756;27;20237;-57
2022/03/27 11:18:10;;;;;;;4.47;3.50;;;25.90;50.50;;;;;;5127826;27;20199;-55
2022/03/27 11:20:55;;;;;;;4.03;3.63;;;26.30;49.60;;;;;;5126741;27;20195;-60
2022/03/27 11:23:41;;;;;;;5.00;4.00;;;27.60;48.50;;;;;;5127171;27;20202;-48
2022/03/27 11:26:27;;;;;;;6.22;3.38;;;26.60;48.50;;;;;;5128531;27;20191;-50
2022/03/27 11:29:22;;;;;;;3.92;3.50;;;27.90;48.50;;;;;;5126337;27;20188;-56
2022/03/27 11:32:09;;;;;;;7.47;5.05;;;28.80;46.40;;;;;;5127254;27;20237;-51
2022/03/27 11:35:10;;;;;;;7.10;5.47;;;27.30;47.20;;;;;;5127072;27;20188;-58
2022/03/27 11:38:20;;;;;;;5.10;4.25;;;27.60;47.30;;;;;;5126027;27;20253;-54
2022/03/27 11:41:24;;;;;;;8.52;6.63;;;29.30;46.10;;;;;;5126494;27;20227;-49
2022/03/27 11:47:40;;;;;;;6.32;4.30;;;29.10;46.30;;;;;;5128555;27;20188;-56
2022/03/27 11:50:28;;;;;;;7.43;6.10;;;28.50;47.10;;;;;;5125463;27;20203;-48
2022/03/27 11:54:04;;;;;;;5.18;4.55;;;28.00;46.70;;;;;;5127242;27;20210;-55
2022/03/27 11:56:53;;;;;;;3.83;3.50;;;28.80;47.30;;;;;;5127438;27;20253;-59
2022/03/27 11:59:50;;;;;;;6.97;4.30;;;30.80;44.80;;;;;;5125897;27;20351;-55
2022/03/27 12:02:42;;;;;;;6.78;5.63;;;31.40;44.30;;;;;;5126201;27;20218;-58
2022/03/27 12:05:37;;;;;;;7.72;6.38;;;30.10;45.30;;;;;;5127851;27;20196;-58
2022/03/27 12:08:32;;;;;;;4.93;4.30;;;29.10;47.10;;;;;;5125609;27;20235;-59
2022/03/27 12:11:20;;;;;;;13.25;10.90;;;28.70;46.90;;;;;;5125320;27;20194;-56
2022/03/27 12:14:09;;;;;;;4.53;4.13;;;28.80;46.40;;;;;;5127379;27;20187;-58
2022/03/27 12:16:53;;;;;;;14.63;10.40;;;28.20;47.00;;;;;;5125089;27;20271;-61
2022/03/27 12:19:37;;;;;;;5.95;5.30;;;27.80;47.70;;;;;;5126399;27;20265;-53
2022/03/27 12:22:41;;;;;;;4.25;3.90;;;29.10;46.60;;;;;;5126594;27;20199;-54
2022/03/27 12:25:26;;;;;;;3.78;3.47;;;28.70;46.30;;;;;;5126553;27;20187;-58
2022/03/27 12:31:26;;;;;;;4.68;3.08;;;27.80;47.30;;;;;;5128087;27;20199;-54
2022/03/27 12:34:13;;;;;;;3.95;3.65;;;32.60;43.00;;;;;;5125585;27;20203;-60
2022/03/27 12:37:14;;;;;;;3.75;3.40;;;31.10;43.70;;;;;;5126456;27;20207;-55
2022/03/27 12:40:05;;;;;;;3.85;3.47;;;30.90;43.30;;;;;;5126450;27;20284;-54
2022/03/27 12:42:52;;;;;;;4.30;3.90;;;29.60;45.30;;;;;;5125155;27;20252;-62
2022/03/27 12:45:42;;;;;;;3.53;3.33;;;30.50;43.90;;;;;;5126005;27;20194;-58
2022/03/27 12:48:27;;;;;;;3.97;3.67;;;28.40;46.00;;;;;;5125849;27;20200;-61
2022/03/27 12:51:12;;;;;;;5.20;3.65;;;25.70;49.30;;;;;;5124032;27;20192;-58
2022/03/27 12:54:05;;;;;;;3.80;3.50;;;25.30;50.60;;;;;;5126728;27;20199;-57
2022/03/27 12:56:57;;;;;;;4.90;3.38;;;25.20;49.20;;;;;;5140169;27;20231;-60
2022/03/27 12:59:44;;;;;;;3.13;2.90;;;22.60;53.70;;;;;;5124448;27;20231;-61
2022/03/27 13:02:28;;;;;;;7.75;4.68;;;22.50;55.20;;;;;;5125920;27;20211;-60
2022/03/27 13:05:15;;;;;;;4.03;3.55;;;24.30;53.00;;;;;;5125036;27;20620;-60
2022/03/27 13:07:59;;;;;;;4.60;3.33;;;25.20;51.80;;;;;;5124244;27;20187;-60
2022/03/27 13:10:43;;;;;;;4.35;3.00;;;26.80;50.00;;;;;;5125599;27;20183;-49
2022/03/27 13:13:35;;;;;;;4.25;3.40;;;29.10;46.50;;;;;;5124929;27;20277;-60
2022/03/27 13:16:23;;;;;;;3.22;2.95;;;31.40;44.90;;;;;;5125025;27;20253;-60
2022/03/27 13:19:19;;;;;;;4.72;3.20;;;32.10;43.20;;;;;;5125411;27;20227;-59
2022/03/27 13:22:04;;;;;;;3.60;2.72;;;31.30;43.80;;;;;;5124621;27;20190;-61
2022/03/27 13:24:53;;;;;;;3.03;2.72;;;31.40;43.80;;;;;;5124936;27;20195;-55
2022/03/27 13:27:37;;;;;;;3.20;2.75;;;31.90;42.60;;;;;;5126016;27;20245;-59
2022/03/27 13:30:25;;;;;;;2.90;2.70;;;31.80;42.60;;;;;;5124448;27;20211;-59
2022/03/27 13:33:09;;;;;;;4.88;3.03;;;30.00;44.30;;;;;;5124940;27;20268;-57
2022/03/27 13:35:54;;;;;;;3.22;2.92;;;29.20;45.80;;;;;;5125074;27;20241;-57
2022/03/27 13:38:38;;;;;;;4.47;2.92;;;28.90;46.50;;;;;;5123484;27;20277;-61
2022/03/27 13:44:27;;;;;;;2.90;2.63;;;30.80;44.40;;;;;;5126263;27;20249;-58
2022/03/27 13:47:12;;;;;;;2.65;2.45;;;32.10;44.00;;;;;;5123188;27;20275;-60
2022/03/27 13:49:57;;;;;;;2.80;2.60;;;32.50;42.00;;;;;;5124682;27;20192;-61
2022/03/27 13:52:41;;;;;;;3.40;2.85;;;31.90;43.00;;;;;;5124753;27;20256;-53
2022/03/27 13:55:26;;;;;;;3.13;2.83;;;31.30;43.20;;;;;;5123850;27;20199;-50
2022/03/27 13:58:11;;;;;;;3.13;2.53;;;31.00;44.10;;;;;;5125046;27;20285;-59
2022/03/27 14:00:55;;;;;;;2.70;2.50;;;32.60;42.70;;;;;;5124174;27;20203;-59
2022/03/27 14:03:39;;;;;;;2.70;2.55;;;35.30;40.50;;;;;;5123808;27;20284;-50
2022/03/27 14:06:24;;;;;;;2.20;2.10;;;34.70;40.40;;;;;;5124292;27;20192;-55
2022/03/27 14:09:09;;;;;;;2.78;2.58;;;34.40;40.80;;;;;;5124155;27;20186;-55
2022/03/27 14:11:53;;;;;;;2.22;2.13;;;35.10;40.40;;;;;;5124174;27;20199;-57
2022/03/27 14:14:38;;;;;;;2.45;2.35;;;36.00;39.00;;;;;;5124342;28;20201;-59
2022/03/27 14:17:22;;;;;;;2.45;2.28;;;33.30;40.60;;;;;;5123405;28;20191;-60
2022/03/27 14:20:07;;;;;;;1.70;1.70;;;34.20;40.50;;;;;;5124865;28;20221;-56
2022/03/27 14:22:53;;;;;;;2.90;2.80;;;33.90;40.60;;;;;;5124051;28;20226;-60
2022/03/27 14:25:38;;;;;;;2.53;1.98;;;32.70;41.50;;;;;;5123779;28;20223;-51
2022/03/27 14:28:22;;;;;;;2.50;2.13;;;31.50;42.80;;;;;;5139480;27;20317;-60
2022/03/27 14:31:07;;;;;;;2.28;2.10;;;33.00;42.30;;;;;;5123958;28;20187;-61
2022/03/27 14:33:51;;;;;;;2.58;2.25;;;32.70;41.90;;;;;;5124350;27;20188;-59
2022/03/27 14:36:35;;;;;;;3.08;2.35;;;32.60;42.10;;;;;;5128880;27;20192;-50
2022/03/27 14:39:20;;;;;;;2.40;2.10;;;32.70;42.00;;;;;;5141806;27;20226;-59
2022/03/27 14:42:05;;;;;;;2.63;2.42;;;31.80;42.20;;;;;;5128246;27;20191;-61
2022/03/27 14:44:49;;;;;;;1.92;1.83;;;30.10;44.50;;;;;;5128053;27;20240;-49
2022/03/27 14:47:34;;;;;;;2.75;2.55;;;32.30;43.20;;;;;;5126781;27;20187;-49
2022/03/27 14:50:19;;;;;;;2.63;2.40;;;32.70;41.80;;;;;;5128772;27;20188;-56
2022/03/27 14:53:03;;;;;;;3.22;2.13;;;33.10;41.50;;;;;;5128369;27;20191;-61